sensor_id;sensor_type;location;lat;lon;timestamp;P1;durP1;ratioP1;P2;durP2;ratioP2
17790;SDS011;9019;48.132;-1.210;2023-05-07T00:00:48;10.33;;;5.43;;
17790;SDS011;9019;48.132;-1.210;2023-05-07T00:03:16;10.30;;;5.10;;
17790;SDS011;9019;48.132;-1.210;2023-05-07T00:05:44;9.93;;;5.63;;
17790;SDS011;9019;48.132;-1.210;2023-05-07T00:08:11;10.27;;;5.77;;
17790;SDS011;9019;48.132;-1.210;2023-05-07T00:10:38;9.63;;;6.10;;
17790;SDS011;9019;48.132;-1.210;2023-05-07T00:13:07;9.93;;;5.73;;
17790;SDS011;9019;48.132;-1.210;2023-05-07T00:15:34;10.03;;;5.37;;
17790;SDS011;9019;48.132;-1.210;2023-05-07T00:18:01;14.00;;;5.87;;
17790;SDS011;9019;48.132;-1.210;2023-05-07T00:20:29;13.73;;;5.80;;
17790;SDS011;9019;48.132;-1.210;2023-05-07T00:22:56;14.80;;;5.63;;
17790;SDS011;9019;48.132;-1.210;2023-05-07T00:25:23;9.17;;;5.30;;
17790;SDS011;9019;48.132;-1.210;2023-05-07T00:27:50;11.83;;;5.30;;
17790;SDS011;9019;48.132;-1.210;2023-05-07T00:30:19;11.33;;;5.33;;
17790;SDS011;9019;48.132;-1.210;2023-05-07T00:32:46;11.33;;;6.00;;
17790;SDS011;9019;48.132;-1.210;2023-05-07T00:35:14;11.47;;;5.97;;
17790;SDS011;9019;48.132;-1.210;2023-05-07T00:37:41;12.17;;;5.67;;
17790;SDS011;9019;48.132;-1.210;2023-05-07T00:40:08;11.97;;;5.80;;
17790;SDS011;9019;48.132;-1.210;2023-05-07T00:42:35;12.67;;;5.77;;
17790;SDS011;9019;48.132;-1.210;2023-05-07T00:45:03;12.03;;;5.47;;
17790;SDS011;9019;48.132;-1.210;2023-05-07T00:47:31;11.63;;;5.57;;
17790;SDS011;9019;48.132;-1.210;2023-05-07T00:49:58;13.93;;;5.33;;
17790;SDS011;9019;48.132;-1.210;2023-05-07T00:52:26;12.20;;;5.53;;
17790;SDS011;9019;48.132;-1.210;2023-05-07T00:54:53;14.07;;;5.63;;
17790;SDS011;9019;48.132;-1.210;2023-05-07T00:57:21;10.77;;;5.50;;
17790;SDS011;9019;48.132;-1.210;2023-05-07T00:59:48;12.43;;;6.00;;
17790;SDS011;9019;48.132;-1.210;2023-05-07T01:02:16;14.90;;;5.20;;
17790;SDS011;9019;48.132;-1.210;2023-05-07T01:04:45;15.83;;;6.40;;
17790;SDS011;9019;48.132;-1.210;2023-05-07T01:07:12;10.30;;;5.50;;
17790;SDS011;9019;48.132;-1.210;2023-05-07T01:09:39;11.20;;;5.17;;
17790;SDS011;9019;48.132;-1.210;2023-05-07T01:12:07;12.33;;;5.73;;
17790;SDS011;9019;48.132;-1.210;2023-05-07T01:14:34;11.17;;;5.57;;
17790;SDS011;9019;48.132;-1.210;2023-05-07T01:17:02;13.83;;;5.87;;
17790;SDS011;9019;48.132;-1.210;2023-05-07T01:19:29;17.10;;;6.20;;
17790;SDS011;9019;48.132;-1.210;2023-05-07T01:22:01;15.33;;;5.80;;
17790;SDS011;9019;48.132;-1.210;2023-05-07T01:24:31;13.43;;;5.67;;
17790;SDS011;9019;48.132;-1.210;2023-05-07T01:26:58;12.13;;;5.90;;
17790;SDS011;9019;48.132;-1.210;2023-05-07T01:29:26;16.47;;;5.67;;
17790;SDS011;9019;48.132;-1.210;2023-05-07T01:31:53;12.53;;;5.93;;
17790;SDS011;9019;48.132;-1.210;2023-05-07T01:34:21;11.63;;;5.40;;
17790;SDS011;9019;48.132;-1.210;2023-05-07T01:36:49;14.70;;;5.80;;
17790;SDS011;9019;48.132;-1.210;2023-05-07T01:39:16;12.90;;;5.70;;
17790;SDS011;9019;48.132;-1.210;2023-05-07T01:41:45;11.17;;;5.73;;
17790;SDS011;9019;48.132;-1.210;2023-05-07T01:44:13;12.33;;;5.50;;
17790;SDS011;9019;48.132;-1.210;2023-05-07T01:46:40;14.83;;;5.77;;
17790;SDS011;9019;48.132;-1.210;2023-05-07T01:49:07;16.10;;;5.83;;
17790;SDS011;9019;48.132;-1.210;2023-05-07T01:51:34;17.20;;;5.63;;
17790;SDS011;9019;48.132;-1.210;2023-05-07T01:54:02;13.80;;;5.97;;
17790;SDS011;9019;48.132;-1.210;2023-05-07T01:56:30;12.97;;;5.93;;
17790;SDS011;9019;48.132;-1.210;2023-05-07T01:58:59;10.57;;;5.57;;
17790;SDS011;9019;48.132;-1.210;2023-05-07T02:01:27;14.30;;;5.47;;
17790;SDS011;9019;48.132;-1.210;2023-05-07T02:03:54;9.83;;;5.20;;
17790;SDS011;9019;48.132;-1.210;2023-05-07T02:06:21;11.20;;;5.20;;
17790;SDS011;9019;48.132;-1.210;2023-05-07T02:08:48;14.30;;;5.50;;
17790;SDS011;9019;48.132;-1.210;2023-05-07T02:11:15;14.30;;;5.60;;
17790;SDS011;9019;48.132;-1.210;2023-05-07T02:13:42;10.60;;;5.33;;
17790;SDS011;9019;48.132;-1.210;2023-05-07T02:16:11;17.03;;;6.07;;
17790;SDS011;9019;48.132;-1.210;2023-05-07T02:18:39;16.63;;;5.97;;
17790;SDS011;9019;48.132;-1.210;2023-05-07T02:21:06;12.50;;;5.57;;
17790;SDS011;9019;48.132;-1.210;2023-05-07T02:23:33;17.43;;;5.57;;
17790;SDS011;9019;48.132;-1.210;2023-05-07T02:26:00;16.47;;;5.70;;
17790;SDS011;9019;48.132;-1.210;2023-05-07T02:28:28;17.83;;;6.00;;
17790;SDS011;9019;48.132;-1.210;2023-05-07T02:30:55;12.83;;;5.47;;
17790;SDS011;9019;48.132;-1.210;2023-05-07T02:33:24;13.93;;;6.13;;
17790;SDS011;9019;48.132;-1.210;2023-05-07T02:35:52;12.27;;;5.40;;
17790;SDS011;9019;48.132;-1.210;2023-05-07T02:38:19;11.93;;;6.03;;
17790;SDS011;9019;48.132;-1.210;2023-05-07T02:40:46;14.17;;;5.57;;
17790;SDS011;9019;48.132;-1.210;2023-05-07T02:43:14;11.50;;;5.60;;
17790;SDS011;9019;48.132;-1.210;2023-05-07T02:45:41;17.73;;;5.70;;
17790;SDS011;9019;48.132;-1.210;2023-05-07T02:48:08;16.27;;;5.60;;
17790;SDS011;9019;48.132;-1.210;2023-05-07T02:50:37;12.77;;;5.60;;
17790;SDS011;9019;48.132;-1.210;2023-05-07T02:53:04;9.70;;;5.87;;
17790;SDS011;9019;48.132;-1.210;2023-05-07T02:55:31;15.77;;;5.17;;
17790;SDS011;9019;48.132;-1.210;2023-05-07T02:57:58;11.00;;;5.33;;
17790;SDS011;9019;48.132;-1.210;2023-05-07T03:00:26;16.63;;;6.10;;
17790;SDS011;9019;48.132;-1.210;2023-05-07T03:02:53;13.70;;;6.10;;
17790;SDS011;9019;48.132;-1.210;2023-05-07T03:05:21;15.93;;;5.63;;
17790;SDS011;9019;48.132;-1.210;2023-05-07T03:07:49;15.00;;;6.40;;
17790;SDS011;9019;48.132;-1.210;2023-05-07T03:10:16;11.43;;;5.33;;
17790;SDS011;9019;48.132;-1.210;2023-05-07T03:12:43;12.20;;;5.43;;
17790;SDS011;9019;48.132;-1.210;2023-05-07T03:15:11;14.30;;;5.93;;
17790;SDS011;9019;48.132;-1.210;2023-05-07T03:17:38;11.73;;;6.00;;
17790;SDS011;9019;48.132;-1.210;2023-05-07T03:20:06;16.30;;;5.90;;
17790;SDS011;9019;48.132;-1.210;2023-05-07T03:22:34;15.57;;;5.97;;
17790;SDS011;9019;48.132;-1.210;2023-05-07T03:25:03;16.03;;;5.60;;
17790;SDS011;9019;48.132;-1.210;2023-05-07T03:27:30;14.23;;;5.60;;
17790;SDS011;9019;48.132;-1.210;2023-05-07T03:29:57;15.27;;;5.60;;
17790;SDS011;9019;48.132;-1.210;2023-05-07T03:32:24;17.77;;;6.20;;
17790;SDS011;9019;48.132;-1.210;2023-05-07T03:34:52;13.87;;;5.67;;
17790;SDS011;9019;48.132;-1.210;2023-05-07T03:37:19;15.23;;;5.73;;
17790;SDS011;9019;48.132;-1.210;2023-05-07T03:39:46;16.37;;;6.00;;
17790;SDS011;9019;48.132;-1.210;2023-05-07T03:42:15;14.13;;;6.47;;
17790;SDS011;9019;48.132;-1.210;2023-05-07T03:44:42;12.37;;;5.83;;
17790;SDS011;9019;48.132;-1.210;2023-05-07T03:47:09;15.03;;;5.93;;
17790;SDS011;9019;48.132;-1.210;2023-05-07T03:49:38;18.73;;;5.87;;
17790;SDS011;9019;48.132;-1.210;2023-05-07T03:52:05;21.43;;;6.70;;
17790;SDS011;9019;48.132;-1.210;2023-05-07T03:54:32;14.13;;;6.23;;
17790;SDS011;9019;48.132;-1.210;2023-05-07T03:56:59;15.50;;;6.50;;
17790;SDS011;9019;48.132;-1.210;2023-05-07T03:59:28;19.27;;;6.13;;
17790;SDS011;9019;48.132;-1.210;2023-05-07T04:01:55;20.07;;;6.13;;
17790;SDS011;9019;48.132;-1.210;2023-05-07T04:04:22;16.33;;;6.47;;
17790;SDS011;9019;48.132;-1.210;2023-05-07T04:06:49;19.00;;;6.23;;
17790;SDS011;9019;48.132;-1.210;2023-05-07T04:09:17;16.47;;;5.90;;
17790;SDS011;9019;48.132;-1.210;2023-05-07T04:11:44;17.63;;;6.27;;
17790;SDS011;9019;48.132;-1.210;2023-05-07T04:14:11;12.17;;;5.77;;
17790;SDS011;9019;48.132;-1.210;2023-05-07T04:16:39;15.50;;;6.10;;
17790;SDS011;9019;48.132;-1.210;2023-05-07T04:19:07;15.40;;;6.33;;
17790;SDS011;9019;48.132;-1.210;2023-05-07T04:21:34;13.33;;;5.70;;
17790;SDS011;9019;48.132;-1.210;2023-05-07T04:24:02;16.87;;;5.83;;
17790;SDS011;9019;48.132;-1.210;2023-05-07T04:26:30;12.93;;;5.87;;
17790;SDS011;9019;48.132;-1.210;2023-05-07T04:28:57;21.77;;;6.60;;
17790;SDS011;9019;48.132;-1.210;2023-05-07T04:31:25;13.67;;;6.00;;
17790;SDS011;9019;48.132;-1.210;2023-05-07T04:33:53;16.03;;;5.77;;
17790;SDS011;9019;48.132;-1.210;2023-05-07T04:36:20;17.13;;;6.57;;
17790;SDS011;9019;48.132;-1.210;2023-05-07T04:38:48;19.17;;;6.37;;
17790;SDS011;9019;48.132;-1.210;2023-05-07T04:41:15;17.90;;;6.37;;
17790;SDS011;9019;48.132;-1.210;2023-05-07T04:43:42;20.53;;;6.60;;
17790;SDS011;9019;48.132;-1.210;2023-05-07T04:46:09;19.90;;;6.77;;
17790;SDS011;9019;48.132;-1.210;2023-05-07T04:48:36;15.60;;;6.37;;
17790;SDS011;9019;48.132;-1.210;2023-05-07T04:51:05;21.43;;;7.23;;
17790;SDS011;9019;48.132;-1.210;2023-05-07T04:53:32;19.83;;;7.20;;
17790;SDS011;9019;48.132;-1.210;2023-05-07T04:56:00;15.00;;;7.03;;
17790;SDS011;9019;48.132;-1.210;2023-05-07T04:58:27;17.13;;;6.83;;
17790;SDS011;9019;48.132;-1.210;2023-05-07T05:00:56;15.67;;;6.93;;
17790;SDS011;9019;48.132;-1.210;2023-05-07T05:03:23;16.47;;;7.07;;
17790;SDS011;9019;48.132;-1.210;2023-05-07T05:05:51;14.57;;;6.57;;
17790;SDS011;9019;48.132;-1.210;2023-05-07T05:08:20;18.03;;;6.50;;
17790;SDS011;9019;48.132;-1.210;2023-05-07T05:10:47;16.70;;;6.50;;
17790;SDS011;9019;48.132;-1.210;2023-05-07T05:13:14;15.17;;;6.13;;
17790;SDS011;9019;48.132;-1.210;2023-05-07T05:15:42;14.67;;;6.03;;
17790;SDS011;9019;48.132;-1.210;2023-05-07T05:18:09;11.57;;;6.07;;
17790;SDS011;9019;48.132;-1.210;2023-05-07T05:20:36;11.33;;;6.00;;
17790;SDS011;9019;48.132;-1.210;2023-05-07T05:23:03;11.70;;;5.80;;
17790;SDS011;9019;48.132;-1.210;2023-05-07T05:25:32;9.67;;;5.30;;
17790;SDS011;9019;48.132;-1.210;2023-05-07T05:27:59;11.27;;;6.10;;
17790;SDS011;9019;48.132;-1.210;2023-05-07T05:30:26;13.50;;;6.17;;
17790;SDS011;9019;48.132;-1.210;2023-05-07T05:32:53;9.87;;;5.70;;
17790;SDS011;9019;48.132;-1.210;2023-05-07T05:35:20;9.73;;;5.90;;
17790;SDS011;9019;48.132;-1.210;2023-05-07T05:37:48;11.17;;;5.60;;
17790;SDS011;9019;48.132;-1.210;2023-05-07T05:40:15;14.37;;;5.70;;
17790;SDS011;9019;48.132;-1.210;2023-05-07T05:42:43;11.17;;;5.23;;
17790;SDS011;9019;48.132;-1.210;2023-05-07T05:45:11;7.97;;;5.23;;
17790;SDS011;9019;48.132;-1.210;2023-05-07T05:47:38;8.20;;;4.80;;
17790;SDS011;9019;48.132;-1.210;2023-05-07T05:50:05;11.30;;;4.90;;
17790;SDS011;9019;48.132;-1.210;2023-05-07T05:52:33;9.80;;;5.33;;
17790;SDS011;9019;48.132;-1.210;2023-05-07T05:55:00;8.10;;;5.33;;
17790;SDS011;9019;48.132;-1.210;2023-05-07T05:57:27;9.77;;;5.10;;
17790;SDS011;9019;48.132;-1.210;2023-05-07T05:59:56;9.17;;;4.80;;
17790;SDS011;9019;48.132;-1.210;2023-05-07T06:02:23;12.10;;;5.40;;
17790;SDS011;9019;48.132;-1.210;2023-05-07T06:04:50;8.83;;;4.93;;
17790;SDS011;9019;48.132;-1.210;2023-05-07T06:07:17;10.13;;;4.90;;
17790;SDS011;9019;48.132;-1.210;2023-05-07T06:09:44;7.87;;;4.30;;
17790;SDS011;9019;48.132;-1.210;2023-05-07T06:12:12;6.37;;;4.20;;
17790;SDS011;9019;48.132;-1.210;2023-05-07T06:14:39;6.57;;;4.10;;
17790;SDS011;9019;48.132;-1.210;2023-05-07T06:17:08;5.30;;;3.80;;
17790;SDS011;9019;48.132;-1.210;2023-05-07T06:19:35;4.57;;;2.80;;
17790;SDS011;9019;48.132;-1.210;2023-05-07T06:22:02;5.23;;;3.17;;
17790;SDS011;9019;48.132;-1.210;2023-05-07T06:24:29;5.27;;;3.60;;
17790;SDS011;9019;48.132;-1.210;2023-05-07T06:26:56;4.03;;;3.33;;
17790;SDS011;9019;48.132;-1.210;2023-05-07T06:29:24;4.63;;;3.53;;
17790;SDS011;9019;48.132;-1.210;2023-05-07T06:31:51;8.40;;;4.20;;
17790;SDS011;9019;48.132;-1.210;2023-05-07T06:34:20;5.47;;;4.30;;
17790;SDS011;9019;48.132;-1.210;2023-05-07T06:36:47;5.47;;;4.00;;
17790;SDS011;9019;48.132;-1.210;2023-05-07T06:39:14;4.70;;;3.73;;
17790;SDS011;9019;48.132;-1.210;2023-05-07T06:41:41;5.87;;;3.50;;
17790;SDS011;9019;48.132;-1.210;2023-05-07T06:44:08;5.33;;;2.90;;
17790;SDS011;9019;48.132;-1.210;2023-05-07T06:46:36;3.40;;;2.80;;
17790;SDS011;9019;48.132;-1.210;2023-05-07T06:49:03;3.17;;;2.20;;
17790;SDS011;9019;48.132;-1.210;2023-05-07T06:51:31;4.23;;;2.20;;
17790;SDS011;9019;48.132;-1.210;2023-05-07T06:53:58;2.97;;;1.90;;
17790;SDS011;9019;48.132;-1.210;2023-05-07T06:56:26;2.83;;;1.77;;
17790;SDS011;9019;48.132;-1.210;2023-05-07T06:58:53;4.63;;;2.00;;
17790;SDS011;9019;48.132;-1.210;2023-05-07T07:01:20;3.80;;;2.27;;
17790;SDS011;9019;48.132;-1.210;2023-05-07T07:03:47;3.33;;;2.10;;
17790;SDS011;9019;48.132;-1.210;2023-05-07T07:06:16;3.17;;;2.00;;
17790;SDS011;9019;48.132;-1.210;2023-05-07T07:08:44;2.37;;;1.90;;
17790;SDS011;9019;48.132;-1.210;2023-05-07T07:11:11;3.07;;;1.90;;
17790;SDS011;9019;48.132;-1.210;2023-05-07T07:13:39;3.60;;;2.30;;
17790;SDS011;9019;48.132;-1.210;2023-05-07T07:16:06;3.23;;;2.67;;
17790;SDS011;9019;48.132;-1.210;2023-05-07T07:18:33;3.00;;;2.40;;
17790;SDS011;9019;48.132;-1.210;2023-05-07T07:21:01;2.97;;;2.03;;
17790;SDS011;9019;48.132;-1.210;2023-05-07T07:23:28;3.63;;;2.30;;
17790;SDS011;9019;48.132;-1.210;2023-05-07T07:25:56;3.63;;;2.50;;
17790;SDS011;9019;48.132;-1.210;2023-05-07T07:28:23;3.37;;;2.37;;
17790;SDS011;9019;48.132;-1.210;2023-05-07T07:30:50;2.77;;;2.43;;
17790;SDS011;9019;48.132;-1.210;2023-05-07T07:33:18;2.70;;;2.27;;
17790;SDS011;9019;48.132;-1.210;2023-05-07T07:35:45;3.43;;;2.60;;
17790;SDS011;9019;48.132;-1.210;2023-05-07T07:38:12;4.93;;;2.77;;
17790;SDS011;9019;48.132;-1.210;2023-05-07T07:40:39;4.27;;;2.63;;
17790;SDS011;9019;48.132;-1.210;2023-05-07T07:43:08;3.00;;;2.40;;
17790;SDS011;9019;48.132;-1.210;2023-05-07T07:45:35;4.53;;;3.60;;
17790;SDS011;9019;48.132;-1.210;2023-05-07T07:48:02;5.17;;;3.70;;
17790;SDS011;9019;48.132;-1.210;2023-05-07T07:50:29;6.77;;;4.40;;
17790;SDS011;9019;48.132;-1.210;2023-05-07T07:52:56;7.25;;;5.28;;
17790;SDS011;9019;48.132;-1.210;2023-05-07T07:55:24;7.37;;;5.40;;
17790;SDS011;9019;48.132;-1.210;2023-05-07T07:57:52;7.57;;;5.50;;
17790;SDS011;9019;48.132;-1.210;2023-05-07T08:00:21;9.43;;;7.53;;
17790;SDS011;9019;48.132;-1.210;2023-05-07T08:02:48;8.90;;;7.40;;
17790;SDS011;9019;48.132;-1.210;2023-05-07T08:05:15;9.53;;;8.10;;
17790;SDS011;9019;48.132;-1.210;2023-05-07T08:07:42;10.17;;;8.30;;
17790;SDS011;9019;48.132;-1.210;2023-05-07T08:10:10;11.67;;;8.00;;
17790;SDS011;9019;48.132;-1.210;2023-05-07T08:12:37;10.33;;;8.10;;
17790;SDS011;9019;48.132;-1.210;2023-05-07T08:15:04;10.43;;;8.50;;
17790;SDS011;9019;48.132;-1.210;2023-05-07T08:17:33;10.07;;;8.33;;
17790;SDS011;9019;48.132;-1.210;2023-05-07T08:20:00;11.67;;;8.23;;
17790;SDS011;9019;48.132;-1.210;2023-05-07T08:22:28;12.50;;;8.40;;
17790;SDS011;9019;48.132;-1.210;2023-05-07T08:24:55;11.17;;;8.20;;
17790;SDS011;9019;48.132;-1.210;2023-05-07T08:27:22;10.37;;;8.47;;
17790;SDS011;9019;48.132;-1.210;2023-05-07T08:29:50;11.53;;;8.50;;
17790;SDS011;9019;48.132;-1.210;2023-05-07T08:32:17;8.40;;;7.15;;
17790;SDS011;9019;48.132;-1.210;2023-05-07T08:34:45;7.57;;;6.20;;
17790;SDS011;9019;48.132;-1.210;2023-05-07T08:37:12;6.72;;;5.85;;
17790;SDS011;9019;48.132;-1.210;2023-05-07T08:39:40;6.43;;;5.72;;
17790;SDS011;9019;48.132;-1.210;2023-05-07T08:42:07;7.15;;;5.45;;
17790;SDS011;9019;48.132;-1.210;2023-05-07T08:44:36;5.80;;;5.05;;
17790;SDS011;9019;48.132;-1.210;2023-05-07T08:47:06;6.00;;;4.78;;
17790;SDS011;9019;48.132;-1.210;2023-05-07T08:49:33;5.93;;;4.70;;
17790;SDS011;9019;48.132;-1.210;2023-05-07T08:52:02;7.07;;;4.82;;
17790;SDS011;9019;48.132;-1.210;2023-05-07T08:54:30;5.30;;;4.78;;
17790;SDS011;9019;48.132;-1.210;2023-05-07T08:56:57;6.03;;;4.43;;
17790;SDS011;9019;48.132;-1.210;2023-05-07T08:59:25;5.30;;;4.05;;
17790;SDS011;9019;48.132;-1.210;2023-05-07T09:01:52;6.47;;;3.70;;
17790;SDS011;9019;48.132;-1.210;2023-05-07T09:04:20;4.93;;;3.80;;
17790;SDS011;9019;48.132;-1.210;2023-05-07T09:06:47;4.50;;;3.65;;
17790;SDS011;9019;48.132;-1.210;2023-05-07T09:09:17;5.03;;;3.78;;
17790;SDS011;9019;48.132;-1.210;2023-05-07T09:11:45;4.35;;;3.78;;
17790;SDS011;9019;48.132;-1.210;2023-05-07T09:14:12;3.67;;;3.28;;
17790;SDS011;9019;48.132;-1.210;2023-05-07T09:16:39;4.30;;;3.33;;
17790;SDS011;9019;48.132;-1.210;2023-05-07T09:19:07;3.50;;;3.20;;
17790;SDS011;9019;48.132;-1.210;2023-05-07T09:21:34;4.32;;;3.35;;
17790;SDS011;9019;48.132;-1.210;2023-05-07T09:24:02;3.63;;;3.25;;
17790;SDS011;9019;48.132;-1.210;2023-05-07T09:26:30;3.22;;;2.90;;
17790;SDS011;9019;48.132;-1.210;2023-05-07T09:28:59;3.33;;;2.85;;
17790;SDS011;9019;48.132;-1.210;2023-05-07T09:31:26;3.42;;;2.85;;
17790;SDS011;9019;48.132;-1.210;2023-05-07T09:33:53;3.00;;;2.75;;
17790;SDS011;9019;48.132;-1.210;2023-05-07T09:36:21;3.30;;;3.00;;
17790;SDS011;9019;48.132;-1.210;2023-05-07T09:38:49;3.03;;;2.80;;
17790;SDS011;9019;48.132;-1.210;2023-05-07T09:41:17;3.47;;;3.17;;
17790;SDS011;9019;48.132;-1.210;2023-05-07T09:43:45;3.75;;;3.10;;
17790;SDS011;9019;48.132;-1.210;2023-05-07T09:46:14;4.53;;;2.97;;
17790;SDS011;9019;48.132;-1.210;2023-05-07T09:48:42;3.50;;;3.20;;
17790;SDS011;9019;48.132;-1.210;2023-05-07T09:51:15;3.88;;;3.30;;
17790;SDS011;9019;48.132;-1.210;2023-05-07T09:53:45;4.18;;;3.42;;
17790;SDS011;9019;48.132;-1.210;2023-05-07T09:56:13;4.35;;;3.05;;
17790;SDS011;9019;48.132;-1.210;2023-05-07T09:58:41;4.90;;;3.20;;
17790;SDS011;9019;48.132;-1.210;2023-05-07T10:01:11;4.28;;;2.95;;
17790;SDS011;9019;48.132;-1.210;2023-05-07T10:03:39;3.60;;;2.90;;
17790;SDS011;9019;48.132;-1.210;2023-05-07T10:06:08;3.13;;;2.60;;
17790;SDS011;9019;48.132;-1.210;2023-05-07T10:08:35;2.80;;;2.50;;
17790;SDS011;9019;48.132;-1.210;2023-05-07T10:11:03;2.88;;;2.25;;
17790;SDS011;9019;48.132;-1.210;2023-05-07T10:13:31;2.60;;;2.25;;
17790;SDS011;9019;48.132;-1.210;2023-05-07T10:15:59;2.20;;;1.90;;
17790;SDS011;9019;48.132;-1.210;2023-05-07T10:18:28;2.03;;;1.70;;
17790;SDS011;9019;48.132;-1.210;2023-05-07T10:20:59;3.30;;;2.13;;
17790;SDS011;9019;48.132;-1.210;2023-05-07T10:23:28;1.75;;;1.60;;
17790;SDS011;9019;48.132;-1.210;2023-05-07T10:25:56;2.88;;;1.70;;
17790;SDS011;9019;48.132;-1.210;2023-05-07T10:28:23;1.65;;;1.30;;
17790;SDS011;9019;48.132;-1.210;2023-05-07T10:30:55;2.17;;;1.45;;
17790;SDS011;9019;48.132;-1.210;2023-05-07T10:33:28;1.52;;;1.42;;
17790;SDS011;9019;48.132;-1.210;2023-05-07T10:35:57;3.45;;;2.00;;
17790;SDS011;9019;48.132;-1.210;2023-05-07T10:38:25;1.75;;;1.50;;
17790;SDS011;9019;48.132;-1.210;2023-05-07T10:40:53;3.05;;;2.00;;
17790;SDS011;9019;48.132;-1.210;2023-05-07T10:43:21;2.20;;;2.00;;
17790;SDS011;9019;48.132;-1.210;2023-05-07T10:48:36;2.60;;;1.50;;
17790;SDS011;9019;48.132;-1.210;2023-05-07T10:51:23;3.65;;;2.30;;
17790;SDS011;9019;48.132;-1.210;2023-05-07T10:54:02;2.00;;;1.80;;
17790;SDS011;9019;48.132;-1.210;2023-05-07T10:56:44;2.33;;;1.63;;
17790;SDS011;9019;48.132;-1.210;2023-05-07T10:59:31;3.78;;;1.63;;
17790;SDS011;9019;48.132;-1.210;2023-05-07T11:01:59;2.10;;;1.90;;
17790;SDS011;9019;48.132;-1.210;2023-05-07T11:04:30;2.30;;;1.73;;
17790;SDS011;9019;48.132;-1.210;2023-05-07T11:10:02;2.38;;;1.88;;
17790;SDS011;9019;48.132;-1.210;2023-05-07T11:15:37;3.25;;;2.80;;
17790;SDS011;9019;48.132;-1.210;2023-05-07T11:18:05;3.80;;;2.90;;
17790;SDS011;9019;48.132;-1.210;2023-05-07T11:20:58;3.90;;;3.15;;
17790;SDS011;9019;48.132;-1.210;2023-05-07T11:26:12;3.67;;;2.67;;
17790;SDS011;9019;48.132;-1.210;2023-05-07T11:28:41;3.22;;;2.63;;
17790;SDS011;9019;48.132;-1.210;2023-05-07T11:31:09;4.38;;;3.17;;
17790;SDS011;9019;48.132;-1.210;2023-05-07T11:33:37;3.60;;;3.00;;
17790;SDS011;9019;48.132;-1.210;2023-05-07T11:36:07;3.90;;;3.03;;
17790;SDS011;9019;48.132;-1.210;2023-05-07T11:38:35;4.32;;;3.78;;
17790;SDS011;9019;48.132;-1.210;2023-05-07T11:41:03;3.15;;;2.75;;
17790;SDS011;9019;48.132;-1.210;2023-05-07T11:43:31;3.63;;;3.20;;
17790;SDS011;9019;48.132;-1.210;2023-05-07T11:46:04;8.68;;;6.65;;
17790;SDS011;9019;48.132;-1.210;2023-05-07T11:48:32;3.05;;;2.70;;
17790;SDS011;9019;48.132;-1.210;2023-05-07T11:51:00;2.95;;;2.67;;
17790;SDS011;9019;48.132;-1.210;2023-05-07T11:53:35;2.45;;;2.20;;
17790;SDS011;9019;48.132;-1.210;2023-05-07T11:56:05;3.58;;;2.45;;
17790;SDS011;9019;48.132;-1.210;2023-05-07T11:58:33;3.22;;;2.65;;
17790;SDS011;9019;48.132;-1.210;2023-05-07T12:01:01;4.68;;;3.20;;
17790;SDS011;9019;48.132;-1.210;2023-05-07T12:03:28;3.25;;;2.95;;
17790;SDS011;9019;48.132;-1.210;2023-05-07T12:05:56;4.63;;;3.90;;
17790;SDS011;9019;48.132;-1.210;2023-05-07T12:08:23;4.55;;;3.53;;
17790;SDS011;9019;48.132;-1.210;2023-05-07T12:10:52;4.70;;;3.42;;
17790;SDS011;9019;48.132;-1.210;2023-05-07T12:13:20;4.57;;;3.25;;
17790;SDS011;9019;48.132;-1.210;2023-05-07T12:15:48;5.88;;;3.90;;
17790;SDS011;9019;48.132;-1.210;2023-05-07T12:18:17;4.00;;;3.50;;
17790;SDS011;9019;48.132;-1.210;2023-05-07T12:20:44;3.50;;;3.10;;
17790;SDS011;9019;48.132;-1.210;2023-05-07T12:23:12;5.15;;;3.63;;
17790;SDS011;9019;48.132;-1.210;2023-05-07T12:25:39;4.53;;;3.00;;
17790;SDS011;9019;48.132;-1.210;2023-05-07T12:28:13;5.97;;;3.75;;
17790;SDS011;9019;48.132;-1.210;2023-05-07T12:30:42;4.60;;;3.50;;
17790;SDS011;9019;48.132;-1.210;2023-05-07T12:33:09;5.60;;;4.68;;
17790;SDS011;9019;48.132;-1.210;2023-05-07T12:35:37;4.60;;;3.95;;
17790;SDS011;9019;48.132;-1.210;2023-05-07T12:38:07;3.20;;;2.70;;
17790;SDS011;9019;48.132;-1.210;2023-05-07T12:40:35;3.53;;;2.50;;
17790;SDS011;9019;48.132;-1.210;2023-05-07T12:43:02;4.88;;;2.80;;
17790;SDS011;9019;48.132;-1.210;2023-05-07T12:45:31;4.40;;;2.65;;
17790;SDS011;9019;48.132;-1.210;2023-05-07T12:48:01;4.35;;;3.10;;
17790;SDS011;9019;48.132;-1.210;2023-05-07T12:50:30;4.50;;;3.50;;
17790;SDS011;9019;48.132;-1.210;2023-05-07T12:52:58;4.32;;;3.90;;
17790;SDS011;9019;48.132;-1.210;2023-05-07T12:55:25;6.13;;;3.40;;
17790;SDS011;9019;48.132;-1.210;2023-05-07T12:57:53;5.65;;;3.55;;
17790;SDS011;9019;48.132;-1.210;2023-05-07T13:00:36;4.03;;;3.10;;
17790;SDS011;9019;48.132;-1.210;2023-05-07T13:03:04;4.68;;;2.58;;
17790;SDS011;9019;48.132;-1.210;2023-05-07T13:05:32;4.60;;;2.67;;
17790;SDS011;9019;48.132;-1.210;2023-05-07T13:08:00;3.35;;;2.53;;
17790;SDS011;9019;48.132;-1.210;2023-05-07T13:10:27;4.47;;;2.70;;
17790;SDS011;9019;48.132;-1.210;2023-05-07T13:12:54;2.95;;;2.33;;
17790;SDS011;9019;48.132;-1.210;2023-05-07T13:15:22;4.00;;;2.25;;
17790;SDS011;9019;48.132;-1.210;2023-05-07T13:17:50;4.45;;;2.67;;
17790;SDS011;9019;48.132;-1.210;2023-05-07T13:20:18;4.55;;;2.85;;
17790;SDS011;9019;48.132;-1.210;2023-05-07T13:22:45;4.53;;;2.75;;
17790;SDS011;9019;48.132;-1.210;2023-05-07T13:25:12;3.30;;;2.50;;
17790;SDS011;9019;48.132;-1.210;2023-05-07T13:27:40;4.60;;;2.67;;
17790;SDS011;9019;48.132;-1.210;2023-05-07T13:30:07;3.28;;;2.20;;
17790;SDS011;9019;48.132;-1.210;2023-05-07T13:32:35;4.72;;;2.40;;
17790;SDS011;9019;48.132;-1.210;2023-05-07T13:35:04;3.67;;;2.40;;
17790;SDS011;9019;48.132;-1.210;2023-05-07T13:37:31;3.95;;;2.28;;
17790;SDS011;9019;48.132;-1.210;2023-05-07T13:39:58;4.43;;;2.70;;
17790;SDS011;9019;48.132;-1.210;2023-05-07T13:42:26;3.95;;;2.20;;
17790;SDS011;9019;48.132;-1.210;2023-05-07T13:44:53;3.42;;;2.20;;
17790;SDS011;9019;48.132;-1.210;2023-05-07T13:47:20;3.55;;;2.20;;
17790;SDS011;9019;48.132;-1.210;2023-05-07T13:49:47;4.00;;;2.38;;
17790;SDS011;9019;48.132;-1.210;2023-05-07T13:52:17;3.40;;;2.35;;
17790;SDS011;9019;48.132;-1.210;2023-05-07T13:54:44;4.63;;;2.60;;
17790;SDS011;9019;48.132;-1.210;2023-05-07T13:57:11;3.92;;;2.58;;
17790;SDS011;9019;48.132;-1.210;2023-05-07T13:59:38;3.28;;;2.20;;
17790;SDS011;9019;48.132;-1.210;2023-05-07T14:02:06;4.22;;;2.38;;
17790;SDS011;9019;48.132;-1.210;2023-05-07T14:04:34;2.75;;;2.20;;
17790;SDS011;9019;48.132;-1.210;2023-05-07T14:07:03;3.65;;;2.33;;
17790;SDS011;9019;48.132;-1.210;2023-05-07T14:09:32;3.47;;;2.10;;
17790;SDS011;9019;48.132;-1.210;2023-05-07T14:12:01;4.53;;;2.38;;
17790;SDS011;9019;48.132;-1.210;2023-05-07T14:14:28;4.40;;;2.00;;
17790;SDS011;9019;48.132;-1.210;2023-05-07T14:16:56;4.63;;;2.17;;
17790;SDS011;9019;48.132;-1.210;2023-05-07T14:19:23;2.67;;;1.67;;
17790;SDS011;9019;48.132;-1.210;2023-05-07T14:21:52;4.43;;;2.15;;
17790;SDS011;9019;48.132;-1.210;2023-05-07T14:24:20;3.58;;;2.20;;
17790;SDS011;9019;48.132;-1.210;2023-05-07T14:26:49;3.50;;;1.98;;
17790;SDS011;9019;48.132;-1.210;2023-05-07T14:29:16;4.07;;;2.55;;
17790;SDS011;9019;48.132;-1.210;2023-05-07T14:31:43;4.40;;;2.03;;
17790;SDS011;9019;48.132;-1.210;2023-05-07T14:34:11;3.60;;;2.10;;
17790;SDS011;9019;48.132;-1.210;2023-05-07T14:36:38;3.92;;;2.13;;
17790;SDS011;9019;48.132;-1.210;2023-05-07T14:39:05;5.13;;;2.25;;
17790;SDS011;9019;48.132;-1.210;2023-05-07T14:41:33;5.45;;;2.30;;
17790;SDS011;9019;48.132;-1.210;2023-05-07T14:44:01;5.65;;;2.10;;
17790;SDS011;9019;48.132;-1.210;2023-05-07T14:46:29;3.22;;;1.85;;
17790;SDS011;9019;48.132;-1.210;2023-05-07T14:48:56;3.67;;;1.73;;
17790;SDS011;9019;48.132;-1.210;2023-05-07T14:51:23;6.50;;;2.10;;
17790;SDS011;9019;48.132;-1.210;2023-05-07T14:53:53;4.57;;;2.05;;
17790;SDS011;9019;48.132;-1.210;2023-05-07T14:56:20;5.13;;;2.00;;
17790;SDS011;9019;48.132;-1.210;2023-05-07T14:58:47;5.03;;;2.10;;